TimeCST,TemperatureF,Dew PointF,Humidity,Sea Level PressureIn,VisibilityMPH,Wind Direction,Wind SpeedMPH,Gust SpeedMPH,PrecipitationIn,Events,Conditions,WindDirDegrees,DateUTC
12:15 AM,23.7,19.2,83,29.85,10.0,West,23.0,28.8,N/A,,Overcast,270,2013-02-19 06:15:00
12:35 AM,23.2,18.1,81,29.86,10.0,West,28.8,32.2,N/A,,Overcast,280,2013-02-19 06:35:00
12:55 AM,22.1,17.1,81,29.87,10.0,WNW,29.9,34.5,N/A,,Mostly Cloudy,290,2013-02-19 06:55:00
1:15 AM,21.2,15.8,80,29.88,10.0,WNW,18.4,-,N/A,,Scattered Clouds,290,2013-02-19 07:15:00
1:35 AM,20.8,16.0,81,29.88,10.0,WNW,19.6,24.2,N/A,,Scattered Clouds,290,2013-02-19 07:35:00
1:55 AM,21.0,16.9,84,29.89,10.0,West,17.3,-,N/A,,Mostly Cloudy,270,2013-02-19 07:55:00
2:15 AM,21.2,17.6,86,29.90,10.0,WNW,24.2,29.9,N/A,,Overcast,300,2013-02-19 08:15:00
2:35 AM,20.3,15.3,81,29.90,10.0,WNW,20.7,29.9,N/A,,Overcast,290,2013-02-19 08:35:00
2:55 AM,20.3,15.6,82,29.90,10.0,West,26.5,33.4,N/A,,Overcast,280,2013-02-19 08:55:00
3:15 AM,19.4,15.8,86,29.91,10.0,WNW,23.0,31.1,N/A,,Overcast,290,2013-02-19 09:15:00
3:35 AM,19.4,14.7,82,29.92,10.0,WNW,20.7,31.1,N/A,,Overcast,290,2013-02-19 09:35:00
3:55 AM,19.4,14.7,82,29.92,10.0,WNW,20.7,-,N/A,,Overcast,290,2013-02-19 09:55:00
4:15 AM,19.4,15.8,86,29.92,10.0,West,21.9,26.5,N/A,Snow,Light Snow,280,2013-02-19 10:15:00
4:35 AM,20.1,15.3,81,29.92,10.0,West,20.7,-,N/A,,Overcast,280,2013-02-19 10:35:00
4:55 AM,19.8,14.7,81,29.93,10.0,WNW,29.9,34.5,N/A,,Overcast,290,2013-02-19 10:55:00
5:15 AM,19.0,14.2,81,29.94,10.0,WNW,29.9,34.5,N/A,,Overcast,290,2013-02-19 11:15:00
5:35 AM,18.3,13.1,80,29.95,10.0,WNW,26.5,32.2,N/A,,Overcast,290,2013-02-19 11:35:00
5:55 AM,18.0,13.1,81,29.96,10.0,WNW,26.5,33.4,N/A,,Overcast,290,2013-02-19 11:55:00
6:15 AM,17.6,12.2,79,29.97,10.0,WNW,28.8,33.4,N/A,,Overcast,290,2013-02-19 12:15:00
6:35 AM,16.3,11.3,81,29.98,10.0,WNW,26.5,41.4,N/A,,Overcast,290,2013-02-19 12:35:00
6:55 AM,16.7,12.0,82,29.99,10.0,West,26.5,29.9,N/A,,Overcast,280,2013-02-19 12:55:00
7:15 AM,15.4,9.7,78,30.00,10.0,WNW,32.2,38.0,N/A,,Mostly Cloudy,290,2013-02-19 13:15:00
7:35 AM,15.3,10.0,80,30.01,10.0,WNW,31.1,39.1,N/A,,Mostly Cloudy,290,2013-02-19 13:35:00
7:55 AM,15.3,10.2,80,30.02,10.0,WNW,27.6,35.7,N/A,,Mostly Cloudy,290,2013-02-19 13:55:00
8:15 AM,15.8,11.3,82,30.03,10.0,WNW,25.3,31.1,N/A,,Overcast,290,2013-02-19 14:15:00
8:35 AM,14.4,8.6,78,30.05,10.0,West,28.8,34.5,N/A,,Scattered Clouds,280,2013-02-19 14:35:00
8:55 AM,14.2,8.4,78,30.06,10.0,WNW,31.1,38.0,N/A,,Scattered Clouds,290,2013-02-19 14:55:00
9:15 AM,14.9,9.1,78,30.07,10.0,WNW,25.3,31.1,N/A,,Mostly Cloudy,290,2013-02-19 15:15:00
9:35 AM,15.6,9.9,78,30.08,10.0,WNW,31.1,35.7,N/A,,Mostly Cloudy,290,2013-02-19 15:35:00
9:55 AM,15.8,10.0,78,30.08,10.0,WNW,29.9,35.7,N/A,,Scattered Clouds,290,2013-02-19 15:55:00
10:15 AM,16.5,10.8,78,30.08,10.0,WNW,35.7,39.1,N/A,,Mostly Cloudy,290,2013-02-19 16:15:00
10:35 AM,16.5,10.8,78,30.09,10.0,WNW,31.1,35.7,N/A,,Mostly Cloudy,290,2013-02-19 16:35:00
10:55 AM,17.6,11.5,77,30.10,10.0,WNW,31.1,38.0,N/A,,Mostly Cloudy,290,2013-02-19 16:55:00
11:15 AM,18.7,12.6,77,30.10,10.0,WNW,29.9,35.7,N/A,,Overcast,290,2013-02-19 17:15:00
11:35 AM,19.6,13.8,78,30.11,10.0,West,29.9,36.8,N/A,,Overcast,280,2013-02-19 17:35:00
11:55 AM,19.9,13.8,77,30.11,10.0,West,31.1,36.8,N/A,,Overcast,280,2013-02-19 17:55:00
12:15 PM,19.9,13.8,77,30.11,10.0,WNW,29.9,40.3,N/A,,Overcast,290,2013-02-19 18:15:00
12:35 PM,20.8,14.2,75,30.12,10.0,WNW,27.6,34.5,N/A,,Overcast,290,2013-02-19 18:35:00
12:55 PM,21.2,14.0,74,30.11,10.0,West,31.1,36.8,N/A,,Overcast,280,2013-02-19 18:55:00
1:15 PM,21.6,14.7,75,30.12,10.0,WNW,31.1,35.7,N/A,,Overcast,290,2013-02-19 19:15:00
1:35 PM,21.7,14.7,74,30.12,10.0,West,27.6,36.8,N/A,,Overcast,280,2013-02-19 19:35:00
1:55 PM,22.6,14.7,72,30.12,10.0,West,28.8,38.0,N/A,,Overcast,280,2013-02-19 19:55:00
2:15 PM,22.8,14.7,71,30.12,10.0,WNW,31.1,41.4,N/A,,Overcast,290,2013-02-19 20:15:00
2:35 PM,22.5,14.2,71,30.13,10.0,West,31.1,38.0,N/A,,Overcast,280,2013-02-19 20:35:00
2:55 PM,23.2,15.4,72,30.13,10.0,WNW,29.9,39.1,N/A,,Overcast,290,2013-02-19 20:55:00
3:15 PM,22.6,14.2,70,30.14,10.0,WNW,26.5,38.0,N/A,,Mostly Cloudy,290,2013-02-19 21:15:00
3:35 PM,23.0,14.5,70,30.15,10.0,WNW,29.9,33.4,N/A,,Mostly Cloudy,290,2013-02-19 21:35:00
3:55 PM,22.8,13.1,66,30.16,10.0,WNW,26.5,34.5,N/A,,Scattered Clouds,300,2013-02-19 21:55:00
4:15 PM,23.0,14.2,69,30.17,10.0,WNW,25.3,-,N/A,,Scattered Clouds,290,2013-02-19 22:15:00
4:35 PM,23.0,14.2,69,30.18,10.0,WNW,23.0,27.6,N/A,,Scattered Clouds,290,2013-02-19 22:35:00
4:55 PM,23.4,14.7,70,30.18,10.0,WNW,24.2,28.8,N/A,,Scattered Clouds,290,2013-02-19 22:55:00
5:15 PM,23.4,14.4,68,30.19,10.0,WNW,19.6,26.5,N/A,,Mostly Cloudy,290,2013-02-19 23:15:00
5:35 PM,22.6,14.2,70,30.20,10.0,West,19.6,24.2,N/A,,Mostly Cloudy,280,2013-02-19 23:35:00
6:35 PM,21.2,12.9,70,30.22,10.0,WNW,15.0,-,N/A,,Clear,290,2013-02-20 00:35:00
6:55 PM,21.2,12.2,68,30.22,10.0,WNW,18.4,25.3,N/A,,Clear,290,2013-02-20 00:55:00
7:15 PM,20.8,10.6,65,30.23,10.0,WNW,19.6,-,N/A,,Clear,300,2013-02-20 01:15:00
7:35 PM,19.6,11.7,71,30.23,10.0,WNW,13.8,-,N/A,,Clear,300,2013-02-20 01:35:00
7:55 PM,19.8,10.2,67,30.24,10.0,WNW,19.6,27.6,N/A,,Clear,300,2013-02-20 01:55:00
8:15 PM,18.7,10.6,71,30.24,10.0,WNW,11.5,-,N/A,,Clear,300,2013-02-20 02:15:00
8:35 PM,17.2,10.6,75,30.25,10.0,WNW,10.4,-,N/A,,Clear,290,2013-02-20 02:35:00
8:55 PM,17.6,10.2,73,30.25,10.0,WNW,12.7,-,N/A,,Clear,290,2013-02-20 02:55:00
9:15 PM,17.4,10.0,73,30.25,10.0,WNW,12.7,-,N/A,,Clear,290,2013-02-20 03:15:00
9:35 PM,17.2,9.7,72,30.26,10.0,WNW,15.0,-,N/A,,Clear,290,2013-02-20 03:35:00
9:55 PM,17.4,9.5,71,30.25,10.0,WNW,17.3,-,N/A,,Clear,300,2013-02-20 03:55:00
10:15 PM,17.6,10.4,73,30.26,10.0,WNW,15.0,-,N/A,,Clear,300,2013-02-20 04:15:00
10:35 PM,16.9,9.3,72,30.27,10.0,WNW,15.0,-,N/A,,Clear,300,2013-02-20 04:35:00
10:55 PM,16.5,9.3,73,30.28,10.0,WNW,11.5,-,N/A,,Clear,300,2013-02-20 04:55:00
11:15 PM,16.2,9.1,74,30.29,10.0,WNW,13.8,-,N/A,,Clear,300,2013-02-20 05:15:00
11:35 PM,15.8,9.1,75,30.29,10.0,NW,12.7,-,N/A,,Clear,310,2013-02-20 05:35:00
11:55 PM,15.8,8.6,73,30.30,10.0,NW,17.3,-,N/A,,Clear,310,2013-02-20 05:55:00